EW5413 Weather Reports


Display with metric or nautical units.
time (UTC)temp
F
wind
direction
speed
MPH
gust
MPH
rain 1hr
in
rain 24hr
in
rain mn
in
humidity
%
barometer
mb
20190222082518 54 157 7.0 11.0 0.00 0.00 0.00 73 1020.2
20190222081517 54 157 6.0 10.0 0.00 0.00 0.00 73 1019.9
20190222080517 54 180 6.0 11.0 0.00 0.00 0.00 71 1020.0
20190222075518 55 157 6.0 14.0 0.00 0.00 0.00 69 1020.0
20190222074519 55 157 6.0 10.0 0.00 0.00 0.00 67 1020.1
20190222073517 55 157 6.0 12.0 0.00 0.00 0.00 67 1019.6
20190222072517 55 157 6.0 11.0 0.00 0.00 0.00 65 1019.6
20190222071518 54 135 4.0 9.0 0.00 0.00 0.00 67 1019.5
20190222070519 53 180 4.0 7.0 0.00 0.00 0.00 70 1019.4
20190222065519 52 202 5.0 10.0 0.00 0.00 0.00 69 1019.1
20190222064517 53 180 10.0 16.0 0.00 0.00 0.00 67 1018.8
20190222063517 55 180 12.0 20.0 0.00 0.00 0.00 62 1018.7
20190222062518 54 157 12.0 16.0 0.00 0.00 0.00 63 1018.7
20190222061518 53 157 6.0 8.0 0.00 0.00 0.00 66 1019.0
20190222060517 54 180 11.0 16.0 0.00 0.00 0.00 62 1018.7
20190222055517 55 157 11.0 16.0 0.00 0.00 0.00 59 1018.9
20190222054517 52 157 6.0 8.0 0.00 0.00 0.00 63 1018.9
20190222053517 55 157 9.0 16.0 0.00 0.00 0.00 58 1018.9
20190222052518 55 157 11.0 20.0 0.00 0.00 0.00 59 1018.4
20190222051517 53 157 9.0 12.0 0.00 0.00 0.00 60 1018.5
20190222050517 53 180 11.0 17.0 0.00 0.00 0.00 59 1018.6
20190222045519 54 157 11.0 21.0 0.00 0.00 0.00 55 1018.5
20190222044517 55 157 14.0 27.0 0.00 0.00 0.00 52 1018.4
20190222043518 55 157 13.0 17.0 0.00 0.00 0.00 51 1018.4
20190222042517 52 157 6.0 10.0 0.00 0.00 0.00 59 1018.4
20190222041518 56 180 14.0 22.0 0.00 0.00 0.00 49 1018.5
20190222040519 56 180 15.0 23.0 0.00 0.00 0.00 48 1018.0
20190222035519 56 157 15.0 29.0 0.00 0.00 0.00 48 1018.2
20190222034517 53 157 14.0 20.0 0.00 0.00 0.00 54 1018.6
20190222033517 53 157 13.0 18.0 0.00 0.00 0.00 53 1019.0
20190222032519 55 180 15.0 22.0 0.00 0.00 0.00 49 1019.2
20190222031519 55 180 12.0 20.0 0.00 0.00 0.00 49 1018.6
20190222030517 55 157 12.0 16.0 0.00 0.00 0.00 49 1018.6
20190222025517 50 135 3.0 8.0 0.00 0.00 0.00 70 1018.7
20190222024519 48 67 2.0 4.0 0.00 0.00 0.00 75 1019.0
20190222023519 46 45 2.0 5.0 0.00 0.00 0.00 78 1018.9
20190222022517 46 247 2.0 4.0 0.00 0.00 0.00 81 1018.9
20190222021517 47 247 2.0 4.0 0.00 0.00 0.00 80 1018.9
20190222020519 45 292 2.0 5.0 0.00 0.00 0.00 82 1018.8
20190222014519 48 22 3.0 5.0 0.00 0.00 0.00 80 1018.4
20190222013519 48 67 2.0 8.0 0.00 0.00 0.00 85 1018.5
20190222012519 46 67 1.0 3.0 0.00 0.00 0.00 85 1018.3
20190222011519 47 157 2.0 5.0 0.00 0.00 0.00 84 1018.2
20190222010519 46 157 1.0 3.0 0.00 0.00 0.00 85 1018.4
20190222005519 47 135 2.0 4.0 0.00 0.00 0.00 86 1018.3
20190222004519 46 0 3.0 5.0 0.00 0.00 0.00 86 1018.4
20190222003517 48 157 2.0 7.0 0.00 0.00 0.00 83 1018.4
20190222002519 49 90 5.0 12.0 0.00 0.00 0.00 84 1018.4
20190222001519 47 45 1.0 3.0 0.00 0.00 0.00 86 1018.2
20190222000519 47 157 2.0 4.0 0.00 0.00 0.00 86 1018.1
20190221235517 48 247 2.0 3.0 0.00 0.00 0.00 86 1017.7
20190221234517 48 0.0 1.0 0.00 0.00 0.00 86 1017.6
20190221233519 48 247 1.0 2.0 0.00 0.00 0.00 86 1017.7
20190221232519 48 247 1.0 3.0 0.00 0.00 0.00 87 1017.5
20190221225519 49 225 1.0 3.0 0.00 0.00 0.00 87 1017.5
20190221224519 48 225 1.0 2.0 0.00 0.00 0.00 86 1017.5
20190221223519 49 225 2.0 5.0 0.00 0.00 0.00 84 1017.5
20190221222517 49 45 1.0 2.0 0.00 0.00 0.00 84 1017.4
20190221221519 48 45 2.0 5.0 0.00 0.00 0.00 84 1017.4
20190221220519 50 157 1.0 2.0 0.00 0.00 0.00 83 1017.3
20190221215519 50 67 2.0 3.0 0.00 0.00 0.00 83 1017.1
20190221214519 50 157 2.0 6.0 0.00 0.00 0.00 79 1017.0
20190221213519 54 135 7.0 9.0 0.00 0.00 0.00 74 1017.1
20190221212519 51 135 4.0 5.0 0.00 0.00 0.00 82 1017.2
20190221211519 50 157 2.0 5.0 0.00 0.00 0.00 82 1017.2
20190221210519 52 135 4.0 6.0 0.00 0.00 0.00 82 1016.8
20190221205518 51 112 9.0 11.0 0.00 0.00 0.00 84 1016.6
20190221204519 52 112 8.0 9.0 0.00 0.00 0.00 84 1016.7
20190221203519 49 225 2.0 5.0 0.00 0.00 0.00 91 1016.7
20190221202519 48 225 3.0 4.0 0.00 0.00 0.00 91 1016.5
20190221201519 50 67 2.0 5.0 0.00 0.00 0.00 92 1016.4
20190221200542 48 202 2.0 5.0 0.00 0.00 0.00 90 1016.5
20190221195519 50 0.0 2.0 0.00 0.00 0.00 91 1016.4
20190221194520 51 135 1.0 3.0 0.00 0.00 0.00 91 1016.5
20190221193519 50 112 1.0 4.0 0.00 0.00 0.00 90 1016.5
20190221192519 50 135 2.0 4.0 0.00 0.00 0.00 91 1016.6
20190221191519 51 157 2.0 4.0 0.00 0.00 0.00 90 1016.8
20190221190519 51 157 1.0 3.0 0.00 0.00 0.00 90 1016.6
20190221185519 51 157 1.0 3.0 0.00 0.00 0.00 90 1016.6
20190221184519 50 157 1.0 3.0 0.00 0.00 0.00 89 1016.4
20190221183519 52 157 2.0 4.0 0.00 0.00 0.00 89 1016.4
20190221182519 52 157 2.0 4.0 0.00 0.00 0.00 88 1016.4
20190221181607 52 0.0 1.0 0.00 0.00 0.00 87 1016.3
20190221180520 53 157 2.0 3.0 0.00 0.00 0.00 85 1015.9
20190221175519 55 157 4.0 5.0 0.00 0.00 0.00 86 1015.8
20190221174519 54 157 1.0 4.0 0.00 0.00 0.00 83 1015.5
20190221173518 56 90 2.0 5.0 0.00 0.00 0.00 87 1015.2
20190221172519 54 90 3.0 5.0 0.00 0.00 0.00 87 1015.2
20190221171520 55 157 2.0 3.0 0.00 0.00 0.00 86 1015.2
20190221170520 55 157 1.0 3.0 0.00 0.00 0.00 85 1015.1
20190221165524 58 157 4.0 6.0 0.00 0.00 0.00 81 1014.8
20190221163520 57 112 4.0 7.0 0.00 0.01 0.00 84 1014.8
20190221162519 57 90 5.0 9.0 0.00 0.01 0.00 84 1014.8
20190221152518 55 337 1.0 3.0 0.00 0.03 0.00 88 1014.3
20190221151519 56 22 2.0 5.0 0.00 0.03 0.00 87 1014.4
20190221150519 55 337 1.0 3.0 0.00 0.03 0.00 87 1014.4
20190221144518 55 337 2.0 3.0 0.00 0.03 0.00 90 1014.4
20190221143519 55 337 2.0 3.0 0.00 0.03 0.00 90 1014.4
20190221142519 55 0 1.0 2.0 0.00 0.03 0.00 89 1014.4
20190221141518 55 0 2.0 3.0 0.00 0.03 0.00 89 1014.3
20190221140519 55 45 1.0 2.0 0.00 0.03 0.00 89 1014.2
20190221135518 55 337 2.0 6.0 0.00 0.03 0.00 89 1014.3
20190221134519 56 315 2.0 6.0 0.00 0.03 0.00 88 1014.1
20190221133518 56 315 2.0 5.0 0.00 0.03 0.00 86 1014.0
20190221132518 57 180 2.0 6.0 0.00 0.03 0.00 83 1013.9
20190221131519 57 180 5.0 9.0 0.00 0.03 0.00 84 1014.1
20190221130518 57 180 6.0 10.0 0.00 0.03 0.00 84 1014.0
20190221125518 57 157 9.0 13.0 0.00 0.03 0.00 82 1013.8
20190221124519 56 157 3.0 6.0 0.00 0.03 0.00 86 1013.6
20190221123519 56 157 3.0 7.0 0.00 0.03 0.00 85 1013.5
20190221122518 57 157 3.0 4.0 0.00 0.03 0.00 85 1013.4
20190221121518 57 180 3.0 4.0 0.00 0.03 0.00 85 1013.4
20190221120518 57 180 6.0 9.0 0.00 0.03 0.00 85 1013.4
20190221115518 57 157 6.0 8.0 0.00 0.03 0.00 85 1013.1
20190221113518 57 180 2.0 3.0 0.00 0.03 0.00 85 1012.9
20190221112518 57 180 4.0 6.0 0.00 0.03 0.00 85 1012.8
20190221111518 57 180 3.0 7.0 0.00 0.03 0.00 85 1012.6
20190221110521 57 157 6.0 11.0 0.00 0.03 0.00 84 1012.4
20190221105519 56 202 4.0 7.0 0.00 0.03 0.00 85 1012.3
20190221104518 57 202 5.0 7.0 0.00 0.03 0.00 83 1012.0
20190221103518 57 157 8.0 12.0 0.00 0.03 0.00 82 1012.0
20190221101518 58 157 11.0 14.0 0.00 0.03 0.00 81 1012.0
20190221100518 57 157 7.0 11.0 0.00 0.03 0.00 82 1011.6
20190221095518 57 180 4.0 10.0 0.00 0.03 0.00 83 1011.4
20190221094518 57 180 7.0 13.0 0.00 0.03 0.00 82 1011.3
20190221093518 56 180 6.0 11.0 0.00 0.03 0.00 84 1011.4
20190221092518 56 157 4.0 7.0 0.00 0.03 0.00 85 1011.1
20190221091518 56 202 3.0 6.0 0.00 0.03 0.00 84 1010.8
20190221090518 56 202 3.0 5.0 0.00 0.03 0.00 84 1010.7
20190221085518 56 180 5.0 8.0 0.00 0.03 0.00 83 1010.7
20190221084518 56 157 7.0 10.0 0.00 0.03 0.00 84 1010.5
20190221083518 54 180 6.0 12.0 0.00 0.03 0.00 84 1010.5